createdAt,value
2018-02-07T00:01:33.536Z,68.20
2018-02-07T00:04:03.963Z,67.91
2018-02-07T00:06:33.049Z,68.29
2018-02-07T00:09:03.694Z,68.23
2018-02-07T00:11:33.132Z,68.14
2018-02-07T00:14:04.637Z,67.99
2018-02-07T00:16:38.026Z,68.20
2018-02-07T00:19:06.905Z,68.26
2018-02-07T00:21:35.743Z,68.01
2018-02-07T00:24:06.918Z,67.98
2018-02-07T00:26:35.756Z,68.19
2018-02-07T00:29:05.195Z,68.34
2018-02-07T00:31:34.911Z,68.53
2018-02-07T00:34:05.389Z,68.54
2018-02-07T00:36:34.520Z,68.75
2018-02-07T00:39:05.107Z,68.57
2018-02-07T00:41:35.317Z,68.36
2018-02-07T00:44:06.912Z,68.46
2018-02-07T00:46:36.312Z,68.53
2018-02-07T00:49:05.476Z,68.36
2018-02-07T00:51:34.612Z,68.51
2018-02-07T00:54:05.020Z,68.59
2018-02-07T00:56:34.776Z,68.73
2018-02-07T00:59:05.152Z,68.47
2018-02-07T01:01:34.744Z,68.47
2018-02-07T01:04:05.356Z,68.25
2018-02-07T01:06:34.180Z,68.20
2018-02-07T01:09:04.200Z,68.26
2018-02-07T01:11:33.388Z,68.35
2018-02-07T01:14:04.268Z,68.84
2018-02-07T01:16:33.100Z,68.98
2018-02-07T01:19:02.845Z,68.79
2018-02-07T01:21:31.635Z,69.02
2018-02-07T01:24:02.365Z,68.99
2018-02-07T01:26:31.611Z,69.17
2018-02-07T01:29:00.618Z,69.11
2018-02-07T01:31:29.563Z,69.09
2018-02-07T01:34:00.747Z,69.43
2018-02-07T01:36:29.765Z,69.37
2018-02-07T01:38:58.868Z,69.52
2018-02-07T01:41:28.047Z,69.51
2018-02-07T01:43:57.652Z,69.92
2018-02-07T01:46:28.160Z,69.77
2018-02-07T01:49:00.808Z,69.67
2018-02-07T01:51:30.329Z,69.83
2018-02-07T01:53:59.476Z,69.73
2018-02-07T01:56:28.591Z,70.10
2018-02-07T01:58:58.280Z,70.02
2018-02-07T02:01:27.264Z,69.93
2018-02-07T02:03:58.738Z,70.08
2018-02-07T02:06:27.568Z,70.37
2018-02-07T02:08:58.090Z,70.42
2018-02-07T02:11:26.888Z,70.60
2018-02-07T02:13:57.857Z,70.67
2018-02-07T02:16:26.884Z,70.29
2018-02-07T02:18:57.683Z,70.57
2018-02-07T02:21:28.320Z,70.42
2018-02-07T02:23:59.868Z,70.42
2018-02-07T02:26:28.732Z,70.40
2018-02-07T02:28:58.888Z,70.42
2018-02-07T02:31:27.660Z,70.55
2018-02-07T02:33:57.493Z,70.50
2018-02-07T02:36:41.324Z,70.66
2018-02-07T02:39:10.097Z,70.54
2018-02-07T02:41:38.864Z,70.21
2018-02-07T02:44:08.796Z,70.23
2018-02-07T02:46:37.580Z,70.04
2018-02-07T02:49:06.383Z,69.94
2018-02-07T02:51:35.677Z,69.73
2018-02-07T02:54:06.116Z,69.74
2018-02-07T02:56:34.924Z,69.80
2018-02-07T02:59:04.422Z,69.77
2018-02-07T03:01:34.552Z,69.76
2018-02-07T03:04:04.606Z,69.68
2018-02-07T03:06:33.393Z,69.64
2018-02-07T03:09:03.681Z,69.71
2018-02-07T03:11:32.988Z,69.97
2018-02-07T03:14:03.204Z,69.78
2018-02-07T03:16:32.044Z,69.70
2018-02-07T03:19:01.193Z,69.85
2018-02-07T03:21:30.148Z,70.22
2018-02-07T03:23:58.923Z,70.36
2018-02-07T03:26:28.121Z,70.14
2018-02-07T03:28:58.120Z,70.49
2018-02-07T03:31:27.269Z,70.87
2018-02-07T03:33:59.421Z,70.57
2018-02-07T03:36:28.353Z,70.64
2018-02-07T03:38:58.614Z,70.83
2018-02-07T03:41:27.402Z,70.97
2018-02-07T03:43:57.464Z,71.06
2018-02-07T03:46:27.640Z,71.18
2018-02-07T03:48:57.302Z,71.41
2018-02-07T03:51:26.101Z,71.23
2018-02-07T03:53:55.966Z,71.34
2018-02-07T03:56:24.733Z,71.24
2018-02-07T03:58:54.075Z,71.12
2018-02-07T04:01:23.237Z,71.25
2018-02-07T04:03:52.036Z,71.23
2018-02-07T04:06:21.097Z,71.37
2018-02-07T04:08:50.111Z,71.24
2018-02-07T04:11:19.364Z,71.10
2018-02-07T04:13:48.454Z,70.93
2018-02-07T04:16:17.229Z,71.15
2018-02-07T04:18:46.021Z,71.23
2018-02-07T04:21:15.100Z,71.35
2018-02-07T04:23:43.914Z,71.26
2018-02-07T04:26:13.688Z,71.13
2018-02-07T04:28:42.572Z,71.05
2018-02-07T04:31:11.648Z,70.98
2018-02-07T04:33:41.880Z,71.14
2018-02-07T04:36:40.931Z,71.41
2018-02-07T04:39:09.712Z,71.16
2018-02-07T04:41:39.598Z,71.20
2018-02-07T04:44:08.984Z,71.13
2018-02-07T04:46:38.130Z,71.10
2018-02-07T04:49:07.073Z,71.13
2018-02-07T04:51:35.877Z,71.02
2018-02-07T04:54:05.713Z,70.97
2018-02-07T04:56:34.768Z,71.22
2018-02-07T04:59:04.633Z,71.28
2018-02-07T05:01:33.493Z,71.40
2018-02-07T05:04:04.481Z,71.42
2018-02-07T05:06:34.352Z,71.30
2018-02-07T05:09:04.343Z,71.21
2018-02-07T05:11:33.556Z,71.16
2018-02-07T05:14:04.016Z,71.13
2018-02-07T05:16:32.845Z,71.19
2018-02-07T05:19:03.206Z,71.06
2018-02-07T05:21:32.032Z,70.99
2018-02-07T05:24:01.642Z,70.74
2018-02-07T05:26:31.837Z,70.76
2018-02-07T05:29:00.765Z,70.72
2018-02-07T05:31:30.403Z,70.69
2018-02-07T05:34:00.417Z,70.71
2018-02-07T05:36:29.473Z,70.60
2018-02-07T05:39:00.014Z,70.87
2018-02-07T05:41:28.784Z,70.76
2018-02-07T05:43:58.076Z,70.59
2018-02-07T05:46:27.214Z,70.25
2018-02-07T05:48:57.261Z,70.08
2018-02-07T05:51:26.194Z,70.13
2018-02-07T05:53:55.753Z,70.41
2018-02-07T05:56:24.544Z,70.58
2018-02-07T05:58:53.290Z,70.36
2018-02-07T06:01:22.364Z,70.19
2018-02-07T06:03:51.649Z,70.21
2018-02-07T06:06:20.416Z,70.50
2018-02-07T06:08:49.528Z,70.29
2018-02-07T06:11:18.324Z,70.36
2018-02-07T06:13:47.208Z,70.67
2018-02-07T06:16:15.963Z,71.01
2018-02-07T06:18:44.765Z,71.25
2018-02-07T06:21:14.115Z,71.53
2018-02-07T06:23:43.194Z,71.90
2018-02-07T06:26:12.778Z,71.88
2018-02-07T06:28:41.883Z,71.81
2018-02-07T06:31:10.666Z,71.93
2018-02-07T06:33:39.438Z,71.85
2018-02-07T06:36:08.705Z,72.06
2018-02-07T06:38:37.456Z,71.97
2018-02-07T06:41:06.268Z,72.12
2018-02-07T06:43:35.344Z,72.25
2018-02-07T06:46:05.701Z,72.05
2018-02-07T06:48:34.542Z,72.08
2018-02-07T06:51:04.712Z,72.25
2018-02-07T06:53:33.602Z,72.34
2018-02-07T06:56:03.682Z,72.42
2018-02-07T06:58:32.459Z,72.19
2018-02-07T07:01:02.376Z,72.05
2018-02-07T07:03:31.768Z,72.06
2018-02-07T07:06:01.187Z,72.08
2018-02-07T07:08:30.038Z,72.09
2018-02-07T07:10:59.833Z,72.15
2018-02-07T07:13:28.676Z,72.10
2018-02-07T07:15:57.701Z,72.09
2018-02-07T07:18:26.804Z,72.26
2018-02-07T07:20:56.722Z,72.60
2018-02-07T07:23:25.580Z,72.30
2018-02-07T07:25:54.730Z,72.72
2018-02-07T07:28:23.504Z,72.69
2018-02-07T07:30:52.296Z,72.74
2018-02-07T07:35:48.932Z,72.39
2018-02-07T07:38:17.697Z,72.01
2018-02-07T07:40:46.764Z,71.78
2018-02-07T07:43:15.877Z,71.19
2018-02-07T07:45:44.681Z,70.22
2018-02-07T07:48:13.741Z,69.08
2018-02-07T07:50:42.810Z,67.90
2018-02-07T07:53:11.924Z,66.43
2018-02-07T07:55:40.704Z,64.22
2018-02-07T07:58:13.062Z,62.24
2018-02-07T08:00:42.565Z,60.14
2018-02-07T08:03:11.561Z,58.68
2018-02-07T08:05:40.336Z,57.43
2018-02-07T08:08:09.268Z,55.19
2018-02-07T08:10:39.382Z,54.33
2018-02-07T08:13:08.616Z,53.82
2018-02-07T08:15:37.388Z,52.04
2018-02-07T08:18:06.651Z,51.52
2018-02-07T08:21:06.734Z,51.14
2018-02-07T08:23:35.966Z,51.28
2018-02-07T08:26:06.826Z,50.43
2018-02-07T08:28:35.585Z,49.64
2018-02-07T08:31:05.172Z,49.32
2018-02-07T08:33:34.005Z,49.43
2018-02-07T08:36:04.674Z,49.15
2018-02-07T08:38:34.764Z,50.73
2018-02-07T08:41:04.994Z,50.20
2018-02-07T08:43:33.772Z,50.46
2018-02-07T08:46:04.374Z,50.84
2018-02-07T08:48:33.221Z,50.86
2018-02-07T08:51:03.931Z,53.45
2018-02-07T08:53:33.023Z,54.85
2018-02-07T08:56:03.180Z,56.92
2018-02-07T08:58:31.960Z,57.68
2018-02-07T09:01:02.094Z,59.56
2018-02-07T09:03:30.856Z,59.86
2018-02-07T09:06:00.060Z,60.01
2018-02-07T09:08:29.387Z,60.42
2018-02-07T09:10:59.336Z,60.77
2018-02-07T09:13:28.226Z,60.86
2018-02-07T09:15:58.132Z,61.44
2018-02-07T09:18:29.501Z,61.20
2018-02-07T09:20:59.557Z,61.64
2018-02-07T09:23:28.476Z,62.26
2018-02-07T09:25:58.695Z,62.04
2018-02-07T09:28:27.878Z,61.85
2018-02-07T09:30:58.610Z,61.65
2018-02-07T09:33:27.404Z,61.42
2018-02-07T09:35:56.659Z,60.85
2018-02-07T09:38:25.484Z,60.59
2018-02-07T09:40:55.130Z,60.21
2018-02-07T09:43:25.252Z,60.52
2018-02-07T09:45:54.061Z,60.27
2018-02-07T09:48:23.133Z,59.29
2018-02-07T09:50:51.908Z,58.55
2018-02-07T09:53:20.761Z,57.90
2018-02-07T09:55:51.088Z,57.44
2018-02-07T09:58:21.213Z,56.79
2018-02-07T10:00:50.288Z,55.77
2018-02-07T10:03:19.971Z,54.62
2018-02-07T10:05:48.794Z,53.83
2018-02-07T10:08:17.616Z,54.11
2018-02-07T10:10:47.902Z,53.11
2018-02-07T10:13:16.919Z,52.60
2018-02-07T10:15:46.438Z,52.88
2018-02-07T10:18:15.793Z,53.62
2018-02-07T10:20:44.565Z,53.62
2018-02-07T10:23:14.748Z,54.32
2018-02-07T10:25:43.844Z,53.58
2018-02-07T10:28:12.879Z,52.82
2018-02-07T10:33:26.104Z,53.54
2018-02-07T10:35:55.405Z,53.72
2018-02-07T10:38:25.354Z,53.81
2018-02-07T10:40:56.308Z,54.22
2018-02-07T10:43:25.360Z,53.53
2018-02-07T10:45:56.992Z,53.87
2018-02-07T10:48:26.608Z,53.62
2018-02-07T10:50:56.393Z,53.16
2018-02-07T10:53:26.635Z,52.70
2018-02-07T10:56:00.340Z,53.22
2018-02-07T10:58:46.833Z,52.81
2018-02-07T11:01:32.954Z,53.84
2018-02-07T11:04:03.475Z,53.54
2018-02-07T11:06:32.280Z,53.33
2018-02-07T11:09:01.466Z,52.72
2018-02-07T11:11:30.668Z,52.66
2018-02-07T11:13:59.447Z,52.97
2018-02-07T11:16:28.769Z,52.71
2018-02-07T11:18:58.045Z,51.78
2018-02-07T11:21:26.849Z,51.60
2018-02-07T11:23:56.188Z,52.73
2018-02-07T11:26:25.433Z,52.89
2018-02-07T11:28:54.228Z,52.95
2018-02-07T11:31:23.009Z,52.77
2018-02-07T11:33:52.087Z,52.95
2018-02-07T11:36:21.160Z,53.23
2018-02-07T11:38:50.280Z,53.70
2018-02-07T11:41:19.928Z,53.31
2018-02-07T11:43:48.764Z,53.33
2018-02-07T11:46:17.552Z,52.96
2018-02-07T11:48:46.929Z,53.83
2018-02-07T11:51:16.167Z,53.70
2018-02-07T11:53:45.764Z,53.99
2018-02-07T11:56:18.165Z,54.17
2018-02-07T11:58:48.525Z,54.29
2018-02-07T12:03:48.884Z,53.87
2018-02-07T12:06:18.683Z,54.65
2018-02-07T12:08:48.904Z,54.91
2018-02-07T12:11:17.969Z,54.94
2018-02-07T12:13:46.813Z,55.12
2018-02-07T12:16:17.506Z,53.90
2018-02-07T12:18:46.283Z,53.21
2018-02-07T12:21:15.988Z,52.71
2018-02-07T12:23:45.072Z,52.51
2018-02-07T12:26:14.637Z,52.25
2018-02-07T12:28:43.476Z,52.01
2018-02-07T12:31:14.110Z,51.95
2018-02-07T12:33:42.919Z,51.23
2018-02-07T12:36:15.108Z,51.34
2018-02-07T12:38:44.243Z,51.84
2018-02-07T12:41:13.797Z,51.30
2018-02-07T12:43:42.711Z,51.23
2018-02-07T12:46:12.017Z,50.34
2018-02-07T12:48:40.858Z,50.27
2018-02-07T12:51:09.683Z,48.97
2018-02-07T12:53:38.791Z,47.95
2018-02-07T12:56:07.759Z,46.83
2018-02-07T12:58:36.649Z,46.42
2018-02-07T13:01:06.025Z,46.32
2018-02-07T13:03:34.795Z,45.98
2018-02-07T13:06:05.159Z,45.45
2018-02-07T13:08:35.572Z,45.08
2018-02-07T13:11:05.229Z,44.78
2018-02-07T13:13:34.021Z,45.08
2018-02-07T13:16:06.123Z,44.71
2018-02-07T13:18:35.365Z,43.41
2018-02-07T13:21:05.520Z,42.50
2018-02-07T13:23:34.648Z,42.59
2018-02-07T13:26:06.669Z,43.05
2018-02-07T13:28:35.454Z,43.37
2018-02-07T13:31:05.288Z,44.81
2018-02-07T13:33:34.065Z,44.65
2018-02-07T13:36:05.480Z,44.60
2018-02-07T13:38:35.482Z,44.76
2018-02-07T13:41:04.920Z,43.86
2018-02-07T13:43:33.741Z,43.96
2018-02-07T13:46:03.684Z,44.20
2018-02-07T13:48:32.525Z,45.29
2018-02-07T13:51:01.638Z,46.19
2018-02-07T13:53:30.739Z,46.12
2018-02-07T13:55:59.536Z,46.57
2018-02-07T13:58:29.480Z,47.49
2018-02-07T14:00:58.528Z,46.69
2018-02-07T14:03:27.317Z,46.87
2018-02-07T14:05:56.124Z,47.35
2018-02-07T14:08:25.236Z,46.99
2018-02-07T14:10:54.064Z,48.21
2018-02-07T14:13:25.115Z,48.30
2018-02-07T14:15:54.184Z,48.65
2018-02-07T14:18:23.276Z,48.59
2018-02-07T14:20:52.058Z,48.95
2018-02-07T14:23:21.204Z,49.38
2018-02-07T14:25:49.998Z,49.32
2018-02-07T14:28:18.892Z,49.33
2018-02-07T14:30:48.112Z,49.56
2018-02-07T14:33:18.207Z,49.99
2018-02-07T14:35:46.987Z,49.82
2018-02-07T14:38:18.052Z,50.31
2018-02-07T14:40:46.846Z,50.74
2018-02-07T14:43:16.688Z,50.74
2018-02-07T14:45:45.725Z,50.74
2018-02-07T14:48:15.646Z,51.08
2018-02-07T14:50:44.478Z,51.30
2018-02-07T14:53:14.139Z,51.48
2018-02-07T14:55:43.048Z,52.48
2018-02-07T14:58:12.961Z,51.99
2018-02-07T15:00:42.068Z,52.64
2018-02-07T15:03:11.009Z,52.66
2018-02-07T15:05:40.868Z,52.61
2018-02-07T15:08:10.012Z,53.30
2018-02-07T15:10:39.614Z,53.58
2018-02-07T15:13:08.520Z,53.53
2018-02-07T15:15:37.640Z,53.35
2018-02-07T15:18:06.440Z,53.65
2018-02-07T15:20:35.312Z,53.73
2018-02-07T15:23:05.700Z,54.06
2018-02-07T15:25:34.540Z,54.17
2018-02-07T15:28:04.037Z,54.28
2018-02-07T15:30:34.413Z,54.64
2018-02-07T15:33:05.568Z,54.13
2018-02-07T15:35:35.115Z,54.13
2018-02-07T15:38:05.124Z,54.05
2018-02-07T15:40:33.997Z,54.03
2018-02-07T15:43:04.250Z,54.31
2018-02-07T15:45:33.368Z,54.44
2018-02-07T15:48:03.965Z,54.62
2018-02-07T15:50:32.832Z,54.69
2018-02-07T15:53:02.630Z,54.91
2018-02-07T15:55:31.531Z,55.13
2018-02-07T15:58:00.910Z,55.59
2018-02-07T16:00:31.265Z,55.18
2018-02-07T16:03:00.049Z,55.25
2018-02-07T16:05:28.876Z,56.28
2018-02-07T16:07:58.113Z,56.21
2018-02-07T16:10:26.932Z,56.39
2018-02-07T16:12:55.704Z,56.88
2018-02-07T16:15:26.740Z,56.79
2018-02-07T16:17:56.353Z,57.41
2018-02-07T16:20:25.130Z,57.82
2018-02-07T16:22:54.307Z,57.91
2018-02-07T16:25:24.575Z,58.11
2018-02-07T16:27:53.409Z,58.11
2018-02-07T16:30:23.358Z,58.20
2018-02-07T16:32:52.137Z,58.46
2018-02-07T16:35:21.105Z,58.36
2018-02-07T16:37:50.177Z,58.56
2018-02-07T16:40:20.284Z,58.75
2018-02-07T16:42:49.536Z,58.71
2018-02-07T16:45:18.817Z,58.65
2018-02-07T16:47:47.604Z,58.99
2018-02-07T16:50:17.253Z,59.30
2018-02-07T16:52:46.468Z,59.12
2018-02-07T16:55:16.425Z,59.22
2018-02-07T16:57:45.226Z,59.34
2018-02-07T17:00:15.351Z,59.56
2018-02-07T17:02:44.372Z,60.26
2018-02-07T17:05:13.816Z,60.46
2018-02-07T17:07:46.107Z,60.54
2018-02-07T17:10:18.766Z,60.59
2018-02-07T17:12:47.693Z,60.75
2018-02-07T17:15:17.724Z,60.67
2018-02-07T17:17:46.548Z,60.73
2018-02-07T17:20:15.703Z,60.87
2018-02-07T17:22:44.744Z,61.38
2018-02-07T17:25:14.078Z,61.20
2018-02-07T17:27:43.565Z,61.43
2018-02-07T17:30:12.690Z,61.30
2018-02-07T17:32:41.482Z,61.16
2018-02-07T17:35:10.513Z,61.32
2018-02-07T17:37:40.603Z,61.39
2018-02-07T17:40:09.541Z,61.78
2018-02-07T17:42:38.392Z,62.18
2018-02-07T17:45:07.504Z,61.95
2018-02-07T17:47:36.307Z,61.94
2018-02-07T17:50:07.329Z,61.73
2018-02-07T17:52:37.441Z,61.97
2018-02-07T17:55:06.598Z,62.22
2018-02-07T17:57:35.693Z,62.21
2018-02-07T18:00:06.390Z,62.43
2018-02-07T18:02:35.264Z,62.02
2018-02-07T18:05:05.284Z,61.91
2018-02-07T18:07:35.396Z,61.74
2018-02-07T18:10:06.312Z,61.79
2018-02-07T18:12:35.836Z,61.52
2018-02-07T18:15:08.208Z,61.72
2018-02-07T18:17:37.009Z,61.24
2018-02-07T18:20:06.336Z,61.00
2018-02-07T18:22:35.449Z,61.08
2018-02-07T18:25:04.480Z,60.96
2018-02-07T18:27:33.315Z,61.15
2018-02-07T18:30:04.326Z,61.18
2018-02-07T18:32:33.242Z,61.05
2018-02-07T18:35:04.356Z,61.13
2018-02-07T18:37:34.849Z,61.24
2018-02-07T18:40:05.461Z,61.05
2018-02-07T18:42:34.273Z,60.90
2018-02-07T18:45:04.810Z,60.99
2018-02-07T18:47:33.620Z,61.34
2018-02-07T18:50:04.080Z,61.19
2018-02-07T18:52:34.288Z,61.00
2018-02-07T18:55:05.898Z,61.08
2018-02-07T18:57:35.922Z,61.51
2018-02-07T19:00:06.908Z,61.19
2018-02-07T19:02:35.734Z,61.20
2018-02-07T19:05:04.939Z,61.13
2018-02-07T19:07:34.908Z,61.00
2018-02-07T19:10:05.065Z,61.13
2018-02-07T19:12:34.203Z,61.19
2018-02-07T19:15:07.440Z,61.26
2018-02-07T19:17:37.072Z,60.94
2018-02-07T19:20:06.875Z,60.94
2018-02-07T19:22:36.072Z,61.44
2018-02-07T19:25:04.870Z,60.91
2018-02-07T19:27:34.504Z,61.33
2018-02-07T19:30:04.774Z,60.96
2018-02-07T19:35:10.315Z,60.91
2018-02-07T19:37:39.573Z,61.03
2018-02-07T19:40:08.398Z,61.13
2018-02-07T19:42:37.474Z,61.51
2018-02-07T19:45:07.199Z,61.81
2018-02-07T19:47:37.085Z,62.23
2018-02-07T19:50:07.469Z,62.06
2018-02-07T19:52:36.652Z,62.01
2018-02-07T19:55:05.870Z,61.94
2018-02-07T19:57:34.946Z,61.36
2018-02-07T20:00:05.663Z,61.39
2018-02-07T20:02:34.464Z,62.14
2018-02-07T20:05:20.150Z,62.35
2018-02-07T20:07:57.559Z,63.10
2018-02-07T20:10:33.232Z,63.26
2018-02-07T20:13:07.911Z,63.76
2018-02-07T20:15:38.440Z,64.01
2018-02-07T20:18:08.908Z,64.39
2018-02-07T20:20:37.900Z,64.76
2018-02-07T20:23:07.347Z,65.00
2018-02-07T20:25:36.366Z,65.29
2018-02-07T20:28:06.132Z,65.63
2018-02-07T20:30:35.251Z,66.01
2018-02-07T20:33:05.793Z,66.44
2018-02-07T20:35:34.656Z,66.83
2018-02-07T20:38:05.073Z,66.91
2018-02-07T20:40:33.879Z,67.18
2018-02-07T20:43:03.282Z,67.57
2018-02-07T20:45:32.814Z,67.88
2018-02-07T20:48:03.167Z,67.89
2018-02-07T20:50:32.048Z,68.01
2018-02-07T20:53:01.743Z,68.60
2018-02-07T20:55:30.648Z,68.52
2018-02-07T20:57:59.464Z,68.66
2018-02-07T21:00:29.208Z,69.16
2018-02-07T21:03:04.740Z,69.66
2018-02-07T21:05:41.188Z,69.53
2018-02-07T21:08:10.101Z,69.95
2018-02-07T21:10:39.173Z,70.28
2018-02-07T21:13:09.579Z,70.31
2018-02-07T21:15:39.196Z,70.82
2018-02-07T21:18:08.312Z,70.79
2018-02-07T21:20:37.125Z,70.83
2018-02-07T21:23:05.954Z,70.95
2018-02-07T21:25:35.864Z,70.67
2018-02-07T21:28:06.851Z,70.67
2018-02-07T21:30:35.620Z,70.66
2018-02-07T21:33:06.200Z,70.61
2018-02-07T21:35:34.977Z,71.05
2018-02-07T21:38:05.093Z,71.01
2018-02-07T21:40:34.300Z,71.18
2018-02-07T21:43:04.604Z,70.87
2018-02-07T21:45:33.560Z,70.74
2018-02-07T21:48:04.243Z,70.97
2018-02-07T21:50:34.333Z,70.71
2018-02-07T21:53:03.755Z,70.92
2018-02-07T21:55:32.820Z,71.04
2018-02-07T21:58:06.200Z,71.21
2018-02-07T22:00:35.390Z,70.58
2018-02-07T22:03:05.110Z,70.51
2018-02-07T22:05:33.880Z,70.40
2018-02-07T22:08:07.464Z,70.52
2018-02-07T22:10:38.126Z,71.02
2018-02-07T22:13:07.421Z,70.75
2018-02-07T22:15:36.284Z,70.35
2018-02-07T22:18:06.505Z,70.34
2018-02-07T22:20:35.509Z,70.59
2018-02-07T22:23:06.178Z,70.84
2018-02-07T22:25:35.496Z,70.35
2018-02-07T22:28:06.100Z,70.00
2018-02-07T22:30:34.872Z,69.98
2018-02-07T22:33:04.793Z,70.17
2018-02-07T22:35:33.916Z,69.96
2018-02-07T22:38:04.028Z,69.80
2018-02-07T22:40:33.259Z,69.84
2018-02-07T22:43:02.232Z,69.54
2018-02-07T22:45:31.124Z,69.38
2018-02-07T22:48:00.232Z,69.24
2018-02-07T22:50:29.983Z,69.12
2018-02-07T22:53:00.991Z,69.36
2018-02-07T22:55:31.617Z,70.09
2018-02-07T22:58:02.980Z,69.80
2018-02-07T23:00:33.579Z,69.83
2018-02-07T23:03:05.830Z,69.73
2018-02-07T23:05:36.050Z,70.30
2018-02-07T23:08:06.315Z,70.35
2018-02-07T23:10:35.318Z,69.74
2018-02-07T23:13:04.985Z,69.87
2018-02-07T23:15:34.359Z,69.34
2018-02-07T23:18:04.429Z,69.08
2018-02-07T23:20:33.795Z,68.60
2018-02-07T23:23:03.851Z,68.13
2018-02-07T23:25:33.070Z,68.00
2018-02-07T23:28:04.198Z,68.05
2018-02-07T23:30:33.746Z,68.46
2018-02-07T23:33:03.810Z,68.06
2018-02-07T23:35:33.373Z,68.26
2018-02-07T23:38:05.562Z,68.18
2018-02-07T23:40:35.337Z,67.91
2018-02-07T23:43:05.153Z,67.84
2018-02-07T23:45:34.082Z,67.98
2018-02-07T23:48:03.595Z,67.80
2018-02-07T23:50:33.853Z,68.06
2018-02-07T23:53:04.091Z,68.05
2018-02-07T23:55:35.549Z,68.25
2018-02-07T23:58:12.484Z,68.06
